Harrier Hunter — A8VD8 — position and weather

sailwx.info

Track history (hours):
 
Tides and Currents Weather Stations Pressure Air Temp Water Temp Dewpoint Dewpoint Depression Visibility Wind Speed Wind Dir Waves Ship Positions

Harrier Hunter

Last reported at 2018-Apr-20 21:00 UTC. Time now 2018-Apr-20 22:01 UTC.
Position N 01°30' E 088°42'.

Length 262 m; draft 12 m.

Type: Ship (hazmat cat A). MMSI: 636017199.

Wind from 040 at 5 knots

Barometer 1009.0 mb
Air temperature 26.0 ° C
Visibility: greater than 5.4 NM
Dewpoint 23.2 ° C
Water temperature 30.5 ° C

Date/timePositionNaut miles runAvg speedWind from/ knotsBaromVisibWave heightAir tempDewpointWater temp
2018-Apr-20 21:00N 01°30' E 088°42'   040 / 51009.0 5.4 26.023.230.5
2018-Apr-18 03:35N 01°17' E 103°20'114.5
2018-Apr-18 03:31N 01°17' E 103°21'814.8
2018-Apr-18 03:00N 01°13' E 103°27'815.5
2018-Apr-18 02:30N 01°12' E 103°35'814.7
2018-Apr-18 01:59N 01°09' E 103°42'714.0
2018-Apr-18 01:29N 01°11' E 103°49'3 6.9
2018-Apr-18 01:00N 01°15' E 103°49'0 0.3
2018-Apr-18 00:28N 01°15' E 103°49'0 0.1
2018-Apr-17 23:58N 01°15' E 103°49'0 0.0
2018-Apr-17 23:28N 01°15' E 103°49'0 0.0
2018-Apr-17 22:58N 01°15' E 103°49'0 0.0
2018-Apr-17 22:28N 01°15' E 103°49'0 0.0
2018-Apr-17 21:58N 01°15' E 103°49'0 0.0
2018-Apr-17 21:28N 01°15' E 103°49'0 0.0
2018-Apr-17 20:58N 01°15' E 103°49'0 0.0
2018-Apr-17 20:28N 01°15' E 103°49'0 0.0
2018-Apr-17 19:58N 01°15' E 103°49'0 0.0
2018-Apr-17 19:25N 01°15' E 103°49'0 0.0
2018-Apr-17 18:58N 01°15' E 103°49'0 0.1
2018-Apr-17 18:28N 01°15' E 103°49'0 0.1
2018-Apr-17 17:58N 01°15' E 103°49'0 0.0
2018-Apr-17 17:28N 01°15' E 103°49'0 0.1
2018-Apr-17 16:58N 01°15' E 103°49'0 0.4
2018-Apr-17 16:28N 01°15' E 103°49'0 0.2
2018-Apr-17 15:55N 01°15' E 103°48'0 0.1
2018-Apr-17 15:28N 01°15' E 103°48'0 0.2
2018-Apr-17 14:58N 01°15' E 103°49'0 0.0
2018-Apr-17 14:25N 01°15' E 103°49'0 0.1
2018-Apr-17 13:52N 01°15' E 103°48'0 0.0
2018-Apr-17 13:25N 01°15' E 103°48'0 0.1
2018-Apr-17 12:58N 01°15' E 103°48'0 0.1
2018-Apr-17 12:25N 01°15' E 103°48'0 0.1
2018-Apr-17 11:58N 01°15' E 103°48'0 0.2
2018-Apr-17 11:28N 01°14' E 103°49'0 0.2
2018-Apr-17 10:58N 01°14' E 103°49'0 0.0
2018-Apr-17 10:28N 01°15' E 103°49'0 0.0
2018-Apr-17 09:58N 01°15' E 103°49'0 0.0
2018-Apr-17 09:28N 01°15' E 103°49'0 0.0
2018-Apr-17 08:58N 01°15' E 103°49'0 0.0
2018-Apr-17 08:28N 01°15' E 103°49'0 0.1
2018-Apr-17 07:58N 01°15' E 103°49'0 0.1
2018-Apr-17 07:25N 01°15' E 103°49'0 0.3
2018-Apr-17 06:58N 01°15' E 103°49'1 2.1
2018-Apr-17 06:30N 01°15' E 103°48'1 1.5
2018-Apr-17 06:00N 01°16' E 103°48'0 0.0
2018-Apr-17 05:28N 01°16' E 103°48'0 0.0
2018-Apr-17 04:58N 01°16' E 103°48'0 0.0
2018-Apr-17 04:28N 01°16' E 103°48'0 0.0
2018-Apr-17 03:55N 01°16' E 103°48'0 0.0
2018-Apr-17 03:28N 01°16' E 103°48'0 0.0
2018-Apr-17 02:58N 01°16' E 103°48'0 0.0
2018-Apr-17 02:28N 01°16' E 103°48'0 0.0
2018-Apr-17 01:58N 01°16' E 103°48'0 0.0
2018-Apr-17 01:28N 01°16' E 103°48'0 0.0
2018-Apr-17 00:58N 01°16' E 103°48'0 0.0
2018-Apr-17 00:28N 01°16' E 103°48'0 0.0
2018-Apr-16 23:58N 01°16' E 103°48'0 0.0
2018-Apr-16 23:28N 01°16' E 103°48'0 0.0
2018-Apr-16 22:58N 01°16' E 103°48'0 0.0
2018-Apr-16 22:28N 01°16' E 103°48'0 0.0
2018-Apr-16 21:58N 01°16' E 103°48'0 0.0
2018-Apr-16 21:25N 01°16' E 103°48'0 0.0
2018-Apr-16 20:58N 01°16' E 103°48'0 0.2
2018-Apr-16 20:31N 01°16' E 103°48'1 1.5
2018-Apr-16 19:58N 01°15' E 103°48'3 5.7
2018-Apr-16 19:30N 01°15' E 103°45'5 9.3
2018-Apr-16 19:00N 01°13' E 103°41'0 0.6
2018-Apr-16 18:30N 01°12' E 103°41'0 0.3
2018-Apr-16 18:00N 01°12' E 103°41'0 0.1
2018-Apr-16 17:30N 01°12' E 103°41'0 0.0
2018-Apr-16 16:57N 01°12' E 103°41'0 0.1
2018-Apr-16 16:30N 01°12' E 103°41'0 0.0
2018-Apr-16 16:00N 01°12' E 103°41'0 0.0
2018-Apr-16 15:30N 01°12' E 103°41'0 0.0
2018-Apr-16 14:57N 01°12' E 103°41'0 0.0
2018-Apr-16 14:27N 01°12' E 103°41'0 0.0
2018-Apr-16 14:00N 01°12' E 103°41'0 0.0
2018-Apr-16 13:30N 01°12' E 103°41'0 0.1
2018-Apr-16 12:48N 01°12' E 103°41'0 0.2
2018-Apr-16 12:30N 01°12' E 103°41'0 0.0
2018-Apr-16 11:51N 01°12' E 103°41'0 0.0
2018-Apr-16 11:27N 01°12' E 103°41'0 0.2
2018-Apr-16 11:00N 01°12' E 103°41'0 0.1
2018-Apr-16 10:30N 01°12' E 103°41'0 0.1
2018-Apr-16 09:57N 01°12' E 103°41'0 0.1
2018-Apr-16 09:30N 01°12' E 103°41'0 0.4
2018-Apr-16 09:00N 01°12' E 103°41'3 5.8
2018-Apr-16 08:30N 01°12' E 103°38'3 6.4
2018-Apr-16 08:00N 01°12' E 103°35'5 8.8
2018-Apr-16 07:28N 01°17' E 103°33'5 9.6
2018-Apr-16 06:58N 01°22' E 103°33'0 0.3
2018-Apr-16 06:29N 01°22' E 103°33'0 0.0
2018-Apr-16 05:32N 01°22' E 103°33'0 0.0
2018-Apr-16 05:29N 01°22' E 103°33'0 0.0
2018-Apr-16 04:41N 01°22' E 103°33'0 0.0
2018-Apr-16 04:20N 01°22' E 103°33'0 0.0
2018-Apr-16 03:56N 01°22' E 103°33'0 0.0
2018-Apr-16 03:29N 01°22' E 103°33'0 0.0
2018-Apr-16 02:59N 01°22' E 103°33'0 0.0
2018-Apr-16 02:29N 01°22' E 103°33'0 0.0
2018-Apr-16 01:59N 01°22' E 103°33'0 0.0
2018-Apr-16 01:26N 01°22' E 103°33'0 0.0
2018-Apr-16 00:59N 01°22' E 103°33'0 0.0
2018-Apr-16 00:29N 01°22' E 103°33'0 0.0
2018-Apr-15 23:59N 01°22' E 103°33'0 0.0
2018-Apr-15 23:29N 01°22' E 103°33'0 0.0
2018-Apr-15 22:44N 01°22' E 103°33'0 0.0
2018-Apr-15 22:26N 01°22' E 103°33'0 0.0
2018-Apr-15 21:56N 01°22' E 103°33'0 0.0
2018-Apr-15 21:26N 01°22' E 103°33'0 0.0
2018-Apr-15 20:59N 01°22' E 103°33'0 0.0
2018-Apr-15 20:29N 01°22' E 103°33'0 0.0
2018-Apr-15 19:59N 01°22' E 103°33'0 0.0
2018-Apr-15 19:26N 01°22' E 103°33'0 0.0
2018-Apr-15 18:59N 01°22' E 103°33'0 0.0
2018-Apr-15 18:29N 01°22' E 103°33'0 0.0
2018-Apr-15 17:59N 01°22' E 103°33'0 0.0
2018-Apr-15 17:26N 01°22' E 103°33'0 0.0
2018-Apr-15 16:59N 01°22' E 103°33'0 0.0
2018-Apr-15 16:29N 01°22' E 103°33'0 0.0
2018-Apr-15 15:59N 01°22' E 103°33'0 0.1
2018-Apr-15 15:26N 01°22' E 103°33'0 0.1
2018-Apr-15 14:59N 01°22' E 103°33'0 0.0
2018-Apr-15 14:26N 01°22' E 103°33'0 0.0
2018-Apr-15 13:56N 01°22' E 103°33'0 0.0
2018-Apr-15 13:26N 01°22' E 103°33'0 0.0
2018-Apr-15 12:59N 01°22' E 103°33'0 0.1
2018-Apr-15 12:26N 01°22' E 103°33'0 0.1
2018-Apr-15 11:56N 01°22' E 103°33'0 0.0
2018-Apr-15 11:29N 01°22' E 103°33'0 0.0
2018-Apr-15 11:00N 01°22' E 103°33'1 1.9
2018-Apr-15 10:30N 01°21' E 103°33'612.3
2018-Apr-15 10:01N 01°15' E 103°32'5 9.6
2018-Apr-15 09:31N 01°12' E 103°36'612.1
2018-Apr-15 09:00N 01°10' E 103°42'510.1
2018-Apr-15 08:30N 01°10' E 103°47'612.3
2018-Apr-15 08:00N 01°13' E 103°53'611.9
2018-Apr-15 07:31N 01°15' E 103°58'612.5
2018-Apr-15 07:00N 01°17' E 104°04'612.3
2018-Apr-15 06:30N 01°17' E 104°10'  
Track history (hours):
 
Tides and Currents Weather Stations Pressure Air Temp Water Temp Dewpoint Dewpoint Depression Visibility Wind Speed Wind Dir Waves Ship Positions

Harrier Hunter

Last reported at 2018-Apr-20 21:00 UTC. Time now 2018-Apr-20 22:01 UTC.
Position N 01°30' E 088°42'.

Length 262 m; draft 12 m.

Type: Ship (hazmat cat A). MMSI: 636017199.

Wind from 040 at 5 knots

Barometer 1009.0 mb
Air temperature 26.0 ° C
Visibility: greater than 5.4 NM
Dewpoint 23.2 ° C
Water temperature 30.5 ° C

Date/timePositionNaut miles runAvg speedWind from/ knotsBaromVisibWave heightAir tempDewpointWater temp
2018-Apr-20 21:00N 01°30' E 088°42'   040 / 51009.0 5.4 26.023.230.5
2018-Apr-18 03:35N 01°17' E 103°20'114.5
2018-Apr-18 03:31N 01°17' E 103°21'814.8
2018-Apr-18 03:00N 01°13' E 103°27'815.5
2018-Apr-18 02:30N 01°12' E 103°35'814.7
2018-Apr-18 01:59N 01°09' E 103°42'714.0
2018-Apr-18 01:29N 01°11' E 103°49'3 6.9
2018-Apr-18 01:00N 01°15' E 103°49'0 0.3
2018-Apr-18 00:28N 01°15' E 103°49'0 0.1
2018-Apr-17 23:58N 01°15' E 103°49'0 0.0
2018-Apr-17 23:28N 01°15' E 103°49'0 0.0
2018-Apr-17 22:58N 01°15' E 103°49'0 0.0
2018-Apr-17 22:28N 01°15' E 103°49'0 0.0
2018-Apr-17 21:58N 01°15' E 103°49'0 0.0
2018-Apr-17 21:28N 01°15' E 103°49'0 0.0
2018-Apr-17 20:58N 01°15' E 103°49'0 0.0
2018-Apr-17 20:28N 01°15' E 103°49'0 0.0
2018-Apr-17 19:58N 01°15' E 103°49'0 0.0
2018-Apr-17 19:25N 01°15' E 103°49'0 0.0
2018-Apr-17 18:58N 01°15' E 103°49'0 0.1
2018-Apr-17 18:28N 01°15' E 103°49'0 0.1
2018-Apr-17 17:58N 01°15' E 103°49'0 0.0
2018-Apr-17 17:28N 01°15' E 103°49'0 0.1
2018-Apr-17 16:58N 01°15' E 103°49'0 0.4
2018-Apr-17 16:28N 01°15' E 103°49'0 0.2
2018-Apr-17 15:55N 01°15' E 103°48'0 0.1
2018-Apr-17 15:28N 01°15' E 103°48'0 0.2
2018-Apr-17 14:58N 01°15' E 103°49'0 0.0
2018-Apr-17 14:25N 01°15' E 103°49'0 0.1
2018-Apr-17 13:52N 01°15' E 103°48'0 0.0
2018-Apr-17 13:25N 01°15' E 103°48'0 0.1
2018-Apr-17 12:58N 01°15' E 103°48'0 0.1
2018-Apr-17 12:25N 01°15' E 103°48'0 0.1
2018-Apr-17 11:58N 01°15' E 103°48'0 0.2
2018-Apr-17 11:28N 01°14' E 103°49'0 0.2
2018-Apr-17 10:58N 01°14' E 103°49'0 0.0
2018-Apr-17 10:28N 01°15' E 103°49'0 0.0
2018-Apr-17 09:58N 01°15' E 103°49'0 0.0
2018-Apr-17 09:28N 01°15' E 103°49'0 0.0
2018-Apr-17 08:58N 01°15' E 103°49'0 0.0
2018-Apr-17 08:28N 01°15' E 103°49'0 0.1
2018-Apr-17 07:58N 01°15' E 103°49'0 0.1
2018-Apr-17 07:25N 01°15' E 103°49'0 0.3
2018-Apr-17 06:58N 01°15' E 103°49'1 2.1
2018-Apr-17 06:30N 01°15' E 103°48'1 1.5
2018-Apr-17 06:00N 01°16' E 103°48'0 0.0
2018-Apr-17 05:28N 01°16' E 103°48'0 0.0
2018-Apr-17 04:58N 01°16' E 103°48'0 0.0
2018-Apr-17 04:28N 01°16' E 103°48'0 0.0
2018-Apr-17 03:55N 01°16' E 103°48'0 0.0
2018-Apr-17 03:28N 01°16' E 103°48'0 0.0
2018-Apr-17 02:58N 01°16' E 103°48'0 0.0
2018-Apr-17 02:28N 01°16' E 103°48'0 0.0
2018-Apr-17 01:58N 01°16' E 103°48'0 0.0
2018-Apr-17 01:28N 01°16' E 103°48'0 0.0
2018-Apr-17 00:58N 01°16' E 103°48'0 0.0
2018-Apr-17 00:28N 01°16' E 103°48'0 0.0
2018-Apr-16 23:58N 01°16' E 103°48'0 0.0
2018-Apr-16 23:28N 01°16' E 103°48'0 0.0
2018-Apr-16 22:58N 01°16' E 103°48'0 0.0
2018-Apr-16 22:28N 01°16' E 103°48'0 0.0
2018-Apr-16 21:58N 01°16' E 103°48'0 0.0
2018-Apr-16 21:25N 01°16' E 103°48'0 0.0
2018-Apr-16 20:58N 01°16' E 103°48'0 0.2
2018-Apr-16 20:31N 01°16' E 103°48'1 1.5
2018-Apr-16 19:58N 01°15' E 103°48'3 5.7
2018-Apr-16 19:30N 01°15' E 103°45'5 9.3
2018-Apr-16 19:00N 01°13' E 103°41'0 0.6
2018-Apr-16 18:30N 01°12' E 103°41'0 0.3
2018-Apr-16 18:00N 01°12' E 103°41'0 0.1
2018-Apr-16 17:30N 01°12' E 103°41'0 0.0
2018-Apr-16 16:57N 01°12' E 103°41'0 0.1
2018-Apr-16 16:30N 01°12' E 103°41'0 0.0
2018-Apr-16 16:00N 01°12' E 103°41'0 0.0
2018-Apr-16 15:30N 01°12' E 103°41'0 0.0
2018-Apr-16 14:57N 01°12' E 103°41'0 0.0
2018-Apr-16 14:27N 01°12' E 103°41'0 0.0
2018-Apr-16 14:00N 01°12' E 103°41'0 0.0
2018-Apr-16 13:30N 01°12' E 103°41'0 0.1
2018-Apr-16 12:48N 01°12' E 103°41'0 0.2
2018-Apr-16 12:30N 01°12' E 103°41'0 0.0
2018-Apr-16 11:51N 01°12' E 103°41'0 0.0
2018-Apr-16 11:27N 01°12' E 103°41'0 0.2
2018-Apr-16 11:00N 01°12' E 103°41'0 0.1
2018-Apr-16 10:30N 01°12' E 103°41'0 0.1
2018-Apr-16 09:57N 01°12' E 103°41'0 0.1
2018-Apr-16 09:30N 01°12' E 103°41'0 0.4
2018-Apr-16 09:00N 01°12' E 103°41'3 5.8
2018-Apr-16 08:30N 01°12' E 103°38'3 6.4
2018-Apr-16 08:00N 01°12' E 103°35'5 8.8
2018-Apr-16 07:28N 01°17' E 103°33'5 9.6
2018-Apr-16 06:58N 01°22' E 103°33'0 0.3
2018-Apr-16 06:29N 01°22' E 103°33'0 0.0
2018-Apr-16 05:32N 01°22' E 103°33'0 0.0
2018-Apr-16 05:29N 01°22' E 103°33'0 0.0
2018-Apr-16 04:41N 01°22' E 103°33'0 0.0
2018-Apr-16 04:20N 01°22' E 103°33'0 0.0
2018-Apr-16 03:56N 01°22' E 103°33'0 0.0
2018-Apr-16 03:29N 01°22' E 103°33'0 0.0
2018-Apr-16 02:59N 01°22' E 103°33'0 0.0
2018-Apr-16 02:29N 01°22' E 103°33'0 0.0
2018-Apr-16 01:59N 01°22' E 103°33'0 0.0
2018-Apr-16 01:26N 01°22' E 103°33'0 0.0
2018-Apr-16 00:59N 01°22' E 103°33'0 0.0
2018-Apr-16 00:29N 01°22' E 103°33'0 0.0
2018-Apr-15 23:59N 01°22' E 103°33'0 0.0
2018-Apr-15 23:29N 01°22' E 103°33'0 0.0
2018-Apr-15 22:44N 01°22' E 103°33'0 0.0
2018-Apr-15 22:26N 01°22' E 103°33'0 0.0
2018-Apr-15 21:56N 01°22' E 103°33'0 0.0
2018-Apr-15 21:26N 01°22' E 103°33'0 0.0
2018-Apr-15 20:59N 01°22' E 103°33'0 0.0
2018-Apr-15 20:29N 01°22' E 103°33'0 0.0
2018-Apr-15 19:59N 01°22' E 103°33'0 0.0
2018-Apr-15 19:26N 01°22' E 103°33'0 0.0
2018-Apr-15 18:59N 01°22' E 103°33'0 0.0
2018-Apr-15 18:29N 01°22' E 103°33'0 0.0
2018-Apr-15 17:59N 01°22' E 103°33'0 0.0
2018-Apr-15 17:26N 01°22' E 103°33'0 0.0
2018-Apr-15 16:59N 01°22' E 103°33'0 0.0
2018-Apr-15 16:29N 01°22' E 103°33'0 0.0
2018-Apr-15 15:59N 01°22' E 103°33'0 0.1
2018-Apr-15 15:26N 01°22' E 103°33'0 0.1
2018-Apr-15 14:59N 01°22' E 103°33'0 0.0
2018-Apr-15 14:26N 01°22' E 103°33'0 0.0
2018-Apr-15 13:56N 01°22' E 103°33'0 0.0
2018-Apr-15 13:26N 01°22' E 103°33'0 0.0
2018-Apr-15 12:59N 01°22' E 103°33'0 0.1
2018-Apr-15 12:26N 01°22' E 103°33'0 0.1
2018-Apr-15 11:56N 01°22' E 103°33'0 0.0
2018-Apr-15 11:29N 01°22' E 103°33'0 0.0
2018-Apr-15 11:00N 01°22' E 103°33'1 1.9
2018-Apr-15 10:30N 01°21' E 103°33'612.3
2018-Apr-15 10:01N 01°15' E 103°32'5 9.6
2018-Apr-15 09:31N 01°12' E 103°36'612.1
2018-Apr-15 09:00N 01°10' E 103°42'510.1
2018-Apr-15 08:30N 01°10' E 103°47'612.3
2018-Apr-15 08:00N 01°13' E 103°53'611.9
2018-Apr-15 07:31N 01°15' E 103°58'612.5
2018-Apr-15 07:00N 01°17' E 104°04'612.3
2018-Apr-15 06:30N 01°17' E 104°10'  

Dump ship's entire track history